sensor_id;sensor_type;location;lat;lon;timestamp;temperature;humidity
19496;DHT22;9888;48.606;9.630;2023-05-07T00:00:55;10.10;99.90
19496;DHT22;9888;48.606;9.630;2023-05-07T00:03:22;10.10;99.90
19496;DHT22;9888;48.606;9.630;2023-05-07T00:05:49;10.00;99.90
19496;DHT22;9888;48.606;9.630;2023-05-07T00:08:18;10.00;99.90
19496;DHT22;9888;48.606;9.630;2023-05-07T00:10:45;10.00;99.90
19496;DHT22;9888;48.606;9.630;2023-05-07T00:13:13;9.90;99.90
19496;DHT22;9888;48.606;9.630;2023-05-07T00:15:40;9.90;99.90
19496;DHT22;9888;48.606;9.630;2023-05-07T00:18:07;9.80;99.90
19496;DHT22;9888;48.606;9.630;2023-05-07T00:20:34;9.80;99.90
19496;DHT22;9888;48.606;9.630;2023-05-07T00:23:01;9.80;99.90
19496;DHT22;9888;48.606;9.630;2023-05-07T00:25:28;9.80;99.90
19496;DHT22;9888;48.606;9.630;2023-05-07T00:27:54;9.80;99.90
19496;DHT22;9888;48.606;9.630;2023-05-07T00:30:21;9.80;99.90
19496;DHT22;9888;48.606;9.630;2023-05-07T00:32:48;9.80;99.90
19496;DHT22;9888;48.606;9.630;2023-05-07T00:35:15;9.80;99.90
19496;DHT22;9888;48.606;9.630;2023-05-07T00:37:42;9.80;99.90
19496;DHT22;9888;48.606;9.630;2023-05-07T00:40:09;9.80;99.90
19496;DHT22;9888;48.606;9.630;2023-05-07T00:42:36;9.90;99.90
19496;DHT22;9888;48.606;9.630;2023-05-07T00:45:03;9.90;99.90
19496;DHT22;9888;48.606;9.630;2023-05-07T00:47:30;9.90;99.90
19496;DHT22;9888;48.606;9.630;2023-05-07T00:49:58;10.00;99.90
19496;DHT22;9888;48.606;9.630;2023-05-07T00:52:25;10.00;99.90
19496;DHT22;9888;48.606;9.630;2023-05-07T00:54:53;10.00;99.90
19496;DHT22;9888;48.606;9.630;2023-05-07T00:57:21;10.00;99.90
19496;DHT22;9888;48.606;9.630;2023-05-07T00:59:49;10.10;99.90
19496;DHT22;9888;48.606;9.630;2023-05-07T01:02:17;10.10;99.90
19496;DHT22;9888;48.606;9.630;2023-05-07T01:04:44;10.10;99.90
19496;DHT22;9888;48.606;9.630;2023-05-07T01:07:12;10.00;99.90
19496;DHT22;9888;48.606;9.630;2023-05-07T01:09:40;10.00;99.90
19496;DHT22;9888;48.606;9.630;2023-05-07T01:12:07;10.00;99.90
19496;DHT22;9888;48.606;9.630;2023-05-07T01:14:35;10.00;99.90
19496;DHT22;9888;48.606;9.630;2023-05-07T01:17:03;9.90;99.90
19496;DHT22;9888;48.606;9.630;2023-05-07T01:19:32;9.80;99.90
19496;DHT22;9888;48.606;9.630;2023-05-07T01:22:08;9.80;99.90
19496;DHT22;9888;48.606;9.630;2023-05-07T01:24:38;9.80;99.90
19496;DHT22;9888;48.606;9.630;2023-05-07T01:27:05;9.80;99.90
19496;DHT22;9888;48.606;9.630;2023-05-07T01:29:32;9.70;99.90
19496;DHT22;9888;48.606;9.630;2023-05-07T01:32:00;9.70;99.90
19496;DHT22;9888;48.606;9.630;2023-05-07T01:34:30;9.70;99.90
19496;DHT22;9888;48.606;9.630;2023-05-07T01:36:59;9.60;99.90
19496;DHT22;9888;48.606;9.630;2023-05-07T01:39:27;9.50;99.90
19496;DHT22;9888;48.606;9.630;2023-05-07T01:41:57;9.50;99.90
19496;DHT22;9888;48.606;9.630;2023-05-07T01:44:26;9.50;99.90
19496;DHT22;9888;48.606;9.630;2023-05-07T01:46:53;9.40;99.90
19496;DHT22;9888;48.606;9.630;2023-05-07T01:49:21;9.40;99.90
19496;DHT22;9888;48.606;9.630;2023-05-07T01:51:49;9.40;99.90
19496;DHT22;9888;48.606;9.630;2023-05-07T01:54:16;9.40;99.90
19496;DHT22;9888;48.606;9.630;2023-05-07T01:56:43;9.30;99.90
19496;DHT22;9888;48.606;9.630;2023-05-07T01:59:10;9.30;99.90
19496;DHT22;9888;48.606;9.630;2023-05-07T02:01:37;9.20;99.90
19496;DHT22;9888;48.606;9.630;2023-05-07T02:04:04;9.20;99.90
19496;DHT22;9888;48.606;9.630;2023-05-07T02:06:31;9.20;99.90
19496;DHT22;9888;48.606;9.630;2023-05-07T02:08:58;9.20;99.90
19496;DHT22;9888;48.606;9.630;2023-05-07T02:11:26;9.20;99.90
19496;DHT22;9888;48.606;9.630;2023-05-07T02:13:53;9.20;99.90
19496;DHT22;9888;48.606;9.630;2023-05-07T02:16:20;9.10;99.90
19496;DHT22;9888;48.606;9.630;2023-05-07T02:18:47;9.00;99.90
19496;DHT22;9888;48.606;9.630;2023-05-07T02:21:14;9.00;99.90
19496;DHT22;9888;48.606;9.630;2023-05-07T02:23:41;9.00;99.90
19496;DHT22;9888;48.606;9.630;2023-05-07T02:26:08;9.00;99.90
19496;DHT22;9888;48.606;9.630;2023-05-07T02:28:35;8.90;99.90
19496;DHT22;9888;48.606;9.630;2023-05-07T02:31:04;8.90;99.90
19496;DHT22;9888;48.606;9.630;2023-05-07T02:33:30;8.90;99.90
19496;DHT22;9888;48.606;9.630;2023-05-07T02:36:04;8.90;99.90
19496;DHT22;9888;48.606;9.630;2023-05-07T02:38:32;8.90;99.90
19496;DHT22;9888;48.606;9.630;2023-05-07T02:41:04;8.90;99.90
19496;DHT22;9888;48.606;9.630;2023-05-07T02:43:31;8.80;99.90
19496;DHT22;9888;48.606;9.630;2023-05-07T02:48:28;8.80;99.90
19496;DHT22;9888;48.606;9.630;2023-05-07T02:50:55;8.80;99.90
19496;DHT22;9888;48.606;9.630;2023-05-07T02:53:22;8.80;99.90
19496;DHT22;9888;48.606;9.630;2023-05-07T02:55:56;8.80;99.90
19496;DHT22;9888;48.606;9.630;2023-05-07T02:58:23;8.80;99.90
19496;DHT22;9888;48.606;9.630;2023-05-07T03:00:50;8.80;99.90
19496;DHT22;9888;48.606;9.630;2023-05-07T03:03:18;8.80;99.90
19496;DHT22;9888;48.606;9.630;2023-05-07T03:05:44;8.80;99.90
19496;DHT22;9888;48.606;9.630;2023-05-07T03:08:11;8.70;99.90
19496;DHT22;9888;48.606;9.630;2023-05-07T03:10:38;8.60;99.90
19496;DHT22;9888;48.606;9.630;2023-05-07T03:13:10;8.70;99.90
19496;DHT22;9888;48.606;9.630;2023-05-07T03:15:37;8.60;99.90
19496;DHT22;9888;48.606;9.630;2023-05-07T03:18:04;8.70;99.90
19496;DHT22;9888;48.606;9.630;2023-05-07T03:20:31;8.70;99.90
19496;DHT22;9888;48.606;9.630;2023-05-07T03:22:59;8.80;99.90
19496;DHT22;9888;48.606;9.630;2023-05-07T03:25:28;8.80;99.90
19496;DHT22;9888;48.606;9.630;2023-05-07T03:27:59;8.70;99.90
19496;DHT22;9888;48.606;9.630;2023-05-07T03:30:26;8.70;99.90
19496;DHT22;9888;48.606;9.630;2023-05-07T03:32:53;8.70;99.90
19496;DHT22;9888;48.606;9.630;2023-05-07T03:35:20;8.70;99.90
19496;DHT22;9888;48.606;9.630;2023-05-07T03:37:47;8.70;99.90
19496;DHT22;9888;48.606;9.630;2023-05-07T03:40:14;8.70;99.90
19496;DHT22;9888;48.606;9.630;2023-05-07T03:42:41;8.60;99.90
19496;DHT22;9888;48.606;9.630;2023-05-07T03:45:08;8.60;99.90
19496;DHT22;9888;48.606;9.630;2023-05-07T03:47:43;8.60;99.90
19496;DHT22;9888;48.606;9.630;2023-05-07T03:50:09;8.60;99.90
19496;DHT22;9888;48.606;9.630;2023-05-07T03:52:37;8.50;99.90
19496;DHT22;9888;48.606;9.630;2023-05-07T03:55:04;8.40;99.90
19496;DHT22;9888;48.606;9.630;2023-05-07T03:57:32;8.40;99.90
19496;DHT22;9888;48.606;9.630;2023-05-07T03:59:59;8.50;99.90
19496;DHT22;9888;48.606;9.630;2023-05-07T04:02:26;8.40;99.90
19496;DHT22;9888;48.606;9.630;2023-05-07T04:04:54;8.40;99.90
19496;DHT22;9888;48.606;9.630;2023-05-07T04:07:21;8.40;99.90
19496;DHT22;9888;48.606;9.630;2023-05-07T04:09:48;8.40;99.90
19496;DHT22;9888;48.606;9.630;2023-05-07T04:12:16;8.30;99.90
19496;DHT22;9888;48.606;9.630;2023-05-07T04:14:43;8.40;99.90
19496;DHT22;9888;48.606;9.630;2023-05-07T04:17:12;8.40;99.90
19496;DHT22;9888;48.606;9.630;2023-05-07T04:19:40;8.40;99.90
19496;DHT22;9888;48.606;9.630;2023-05-07T04:22:11;8.40;99.90
19496;DHT22;9888;48.606;9.630;2023-05-07T04:24:39;8.50;99.90
19496;DHT22;9888;48.606;9.630;2023-05-07T04:27:08;8.50;99.90
19496;DHT22;9888;48.606;9.630;2023-05-07T04:29:36;8.50;99.90
19496;DHT22;9888;48.606;9.630;2023-05-07T04:32:04;8.50;99.90
19496;DHT22;9888;48.606;9.630;2023-05-07T04:34:31;8.50;99.90
19496;DHT22;9888;48.606;9.630;2023-05-07T04:36:59;8.50;99.90
19496;DHT22;9888;48.606;9.630;2023-05-07T04:39:28;8.60;99.90
19496;DHT22;9888;48.606;9.630;2023-05-07T04:41:59;8.70;99.90
19496;DHT22;9888;48.606;9.630;2023-05-07T04:44:27;8.70;99.90
19496;DHT22;9888;48.606;9.630;2023-05-07T04:46:57;8.70;99.90
19496;DHT22;9888;48.606;9.630;2023-05-07T04:49:26;8.80;99.90
19496;DHT22;9888;48.606;9.630;2023-05-07T04:51:53;8.90;99.90
19496;DHT22;9888;48.606;9.630;2023-05-07T04:54:20;9.00;99.90
19496;DHT22;9888;48.606;9.630;2023-05-07T04:56:47;9.10;99.90
19496;DHT22;9888;48.606;9.630;2023-05-07T04:59:14;9.20;99.90
19496;DHT22;9888;48.606;9.630;2023-05-07T05:01:42;9.30;99.90
19496;DHT22;9888;48.606;9.630;2023-05-07T05:04:09;9.40;99.90
19496;DHT22;9888;48.606;9.630;2023-05-07T05:06:36;9.60;99.90
19496;DHT22;9888;48.606;9.630;2023-05-07T05:09:05;9.70;99.90
19496;DHT22;9888;48.606;9.630;2023-05-07T05:11:32;9.80;99.90
19496;DHT22;9888;48.606;9.630;2023-05-07T05:14:00;10.00;99.90
19496;DHT22;9888;48.606;9.630;2023-05-07T05:16:27;10.10;99.90
19496;DHT22;9888;48.606;9.630;2023-05-07T05:18:55;10.20;99.90
19496;DHT22;9888;48.606;9.630;2023-05-07T05:21:22;10.30;99.90
19496;DHT22;9888;48.606;9.630;2023-05-07T05:23:49;10.40;99.90
19496;DHT22;9888;48.606;9.630;2023-05-07T05:26:16;10.60;99.90
19496;DHT22;9888;48.606;9.630;2023-05-07T05:28:44;10.70;99.90
19496;DHT22;9888;48.606;9.630;2023-05-07T05:31:12;10.90;99.90
19496;DHT22;9888;48.606;9.630;2023-05-07T05:33:41;11.10;99.90
19496;DHT22;9888;48.606;9.630;2023-05-07T05:36:11;11.30;99.90
19496;DHT22;9888;48.606;9.630;2023-05-07T05:38:40;11.50;99.90
19496;DHT22;9888;48.606;9.630;2023-05-07T05:41:07;11.80;99.90
19496;DHT22;9888;48.606;9.630;2023-05-07T05:43:34;12.00;99.90
19496;DHT22;9888;48.606;9.630;2023-05-07T05:46:02;12.20;99.90
19496;DHT22;9888;48.606;9.630;2023-05-07T05:48:31;12.60;99.90
19496;DHT22;9888;48.606;9.630;2023-05-07T05:50:59;12.80;99.90
19496;DHT22;9888;48.606;9.630;2023-05-07T05:53:26;13.10;99.90
19496;DHT22;9888;48.606;9.630;2023-05-07T05:55:53;13.40;99.90
19496;DHT22;9888;48.606;9.630;2023-05-07T05:58:24;13.70;99.90
19496;DHT22;9888;48.606;9.630;2023-05-07T06:00:53;13.90;99.90
19496;DHT22;9888;48.606;9.630;2023-05-07T06:03:22;14.20;99.90
19496;DHT22;9888;48.606;9.630;2023-05-07T06:05:49;14.50;99.90
19496;DHT22;9888;48.606;9.630;2023-05-07T06:08:16;14.70;99.90
19496;DHT22;9888;48.606;9.630;2023-05-07T06:10:46;15.00;99.90
19496;DHT22;9888;48.606;9.630;2023-05-07T06:13:13;15.20;99.90
19496;DHT22;9888;48.606;9.630;2023-05-07T06:15:44;15.50;99.90
19496;DHT22;9888;48.606;9.630;2023-05-07T06:18:12;15.60;99.90
19496;DHT22;9888;48.606;9.630;2023-05-07T06:20:39;15.80;99.90
19496;DHT22;9888;48.606;9.630;2023-05-07T06:23:06;16.00;99.90
19496;DHT22;9888;48.606;9.630;2023-05-07T06:25:33;16.10;99.90
19496;DHT22;9888;48.606;9.630;2023-05-07T06:28:01;16.20;99.90
19496;DHT22;9888;48.606;9.630;2023-05-07T06:30:29;16.30;99.90
19496;DHT22;9888;48.606;9.630;2023-05-07T06:32:56;16.50;99.90
19496;DHT22;9888;48.606;9.630;2023-05-07T06:35:23;16.50;99.90
19496;DHT22;9888;48.606;9.630;2023-05-07T06:37:49;16.70;99.90
19496;DHT22;9888;48.606;9.630;2023-05-07T06:40:16;16.80;99.90
19496;DHT22;9888;48.606;9.630;2023-05-07T06:42:43;17.00;99.90
19496;DHT22;9888;48.606;9.630;2023-05-07T06:45:11;17.10;99.90
19496;DHT22;9888;48.606;9.630;2023-05-07T06:47:38;17.20;99.90
19496;DHT22;9888;48.606;9.630;2023-05-07T06:50:05;17.20;99.90
19496;DHT22;9888;48.606;9.630;2023-05-07T06:52:33;17.40;99.90
19496;DHT22;9888;48.606;9.630;2023-05-07T06:55:01;17.50;99.90
19496;DHT22;9888;48.606;9.630;2023-05-07T06:57:29;17.70;99.90
19496;DHT22;9888;48.606;9.630;2023-05-07T06:59:56;17.80;99.90
19496;DHT22;9888;48.606;9.630;2023-05-07T07:02:23;17.90;99.90
19496;DHT22;9888;48.606;9.630;2023-05-07T07:04:50;18.00;99.90
19496;DHT22;9888;48.606;9.630;2023-05-07T07:07:18;18.30;99.90
19496;DHT22;9888;48.606;9.630;2023-05-07T07:09:45;18.50;99.90
19496;DHT22;9888;48.606;9.630;2023-05-07T07:12:14;18.80;99.90
19496;DHT22;9888;48.606;9.630;2023-05-07T07:14:43;18.90;99.90
19496;DHT22;9888;48.606;9.630;2023-05-07T07:17:12;18.90;99.90
19496;DHT22;9888;48.606;9.630;2023-05-07T07:19:39;19.00;99.90
19496;DHT22;9888;48.606;9.630;2023-05-07T07:22:07;19.10;99.90
19496;DHT22;9888;48.606;9.630;2023-05-07T07:24:34;19.00;99.90
19496;DHT22;9888;48.606;9.630;2023-05-07T07:27:04;18.90;99.90
19496;DHT22;9888;48.606;9.630;2023-05-07T07:29:32;18.80;99.90
19496;DHT22;9888;48.606;9.630;2023-05-07T07:31:59;18.90;99.90
19496;DHT22;9888;48.606;9.630;2023-05-07T07:34:34;19.00;99.90
19496;DHT22;9888;48.606;9.630;2023-05-07T07:37:02;19.20;99.90
19496;DHT22;9888;48.606;9.630;2023-05-07T07:39:33;19.20;99.90
19496;DHT22;9888;48.606;9.630;2023-05-07T07:42:00;19.30;99.90
19496;DHT22;9888;48.606;9.630;2023-05-07T07:44:28;19.40;99.90
19496;DHT22;9888;48.606;9.630;2023-05-07T07:46:55;19.60;99.90
19496;DHT22;9888;48.606;9.630;2023-05-07T07:49:22;19.70;99.90
19496;DHT22;9888;48.606;9.630;2023-05-07T07:51:50;19.90;99.90
19496;DHT22;9888;48.606;9.630;2023-05-07T07:54:17;19.90;99.90
19496;DHT22;9888;48.606;9.630;2023-05-07T07:56:44;20.00;99.90
19496;DHT22;9888;48.606;9.630;2023-05-07T07:59:11;20.10;99.90
19496;DHT22;9888;48.606;9.630;2023-05-07T08:01:41;20.30;99.90
19496;DHT22;9888;48.606;9.630;2023-05-07T08:04:08;20.50;99.90
19496;DHT22;9888;48.606;9.630;2023-05-07T08:06:35;20.50;99.90
19496;DHT22;9888;48.606;9.630;2023-05-07T08:09:03;20.60;99.90
19496;DHT22;9888;48.606;9.630;2023-05-07T08:11:30;20.80;99.90
19496;DHT22;9888;48.606;9.630;2023-05-07T08:13:58;20.90;99.90
19496;DHT22;9888;48.606;9.630;2023-05-07T08:16:27;21.10;99.90
19496;DHT22;9888;48.606;9.630;2023-05-07T08:18:54;21.20;99.90
19496;DHT22;9888;48.606;9.630;2023-05-07T08:21:22;21.20;99.90
19496;DHT22;9888;48.606;9.630;2023-05-07T08:23:49;21.20;99.90
19496;DHT22;9888;48.606;9.630;2023-05-07T08:26:17;21.30;99.90
19496;DHT22;9888;48.606;9.630;2023-05-07T08:28:44;21.60;99.90
19496;DHT22;9888;48.606;9.630;2023-05-07T08:31:11;22.20;99.90
19496;DHT22;9888;48.606;9.630;2023-05-07T08:33:38;22.40;99.90
19496;DHT22;9888;48.606;9.630;2023-05-07T08:36:10;22.60;99.90
19496;DHT22;9888;48.606;9.630;2023-05-07T08:38:38;22.60;99.90
19496;DHT22;9888;48.606;9.630;2023-05-07T08:41:10;22.20;99.90
19496;DHT22;9888;48.606;9.630;2023-05-07T08:43:38;22.00;99.90
19496;DHT22;9888;48.606;9.630;2023-05-07T08:46:10;22.10;99.90
19496;DHT22;9888;48.606;9.630;2023-05-07T08:48:37;22.30;99.90
19496;DHT22;9888;48.606;9.630;2023-05-07T08:51:04;22.30;99.90
19496;DHT22;9888;48.606;9.630;2023-05-07T08:53:34;22.50;99.90
19496;DHT22;9888;48.606;9.630;2023-05-07T08:56:03;22.60;99.90
19496;DHT22;9888;48.606;9.630;2023-05-07T08:58:30;22.80;99.90
19496;DHT22;9888;48.606;9.630;2023-05-07T09:00:57;22.90;99.90
19496;DHT22;9888;48.606;9.630;2023-05-07T09:03:26;22.90;99.90
19496;DHT22;9888;48.606;9.630;2023-05-07T09:05:52;23.00;99.90
19496;DHT22;9888;48.606;9.630;2023-05-07T09:08:48;23.00;99.90
19496;DHT22;9888;48.606;9.630;2023-05-07T09:11:25;23.00;99.90
19496;DHT22;9888;48.606;9.630;2023-05-07T09:13:58;23.10;99.90
19496;DHT22;9888;48.606;9.630;2023-05-07T09:16:29;23.40;99.90
19496;DHT22;9888;48.606;9.630;2023-05-07T09:19:00;23.60;99.90
19496;DHT22;9888;48.606;9.630;2023-05-07T09:21:28;23.80;99.90
19496;DHT22;9888;48.606;9.630;2023-05-07T09:23:56;23.80;99.90
19496;DHT22;9888;48.606;9.630;2023-05-07T09:26:24;23.80;99.90
19496;DHT22;9888;48.606;9.630;2023-05-07T09:28:54;24.00;99.90
19496;DHT22;9888;48.606;9.630;2023-05-07T09:31:21;24.00;99.90
19496;DHT22;9888;48.606;9.630;2023-05-07T09:33:52;24.20;99.90
19496;DHT22;9888;48.606;9.630;2023-05-07T09:36:20;24.10;99.90
19496;DHT22;9888;48.606;9.630;2023-05-07T09:38:50;24.00;99.90
19496;DHT22;9888;48.606;9.630;2023-05-07T09:41:18;24.00;99.90
19496;DHT22;9888;48.606;9.630;2023-05-07T09:43:46;24.00;99.90
19496;DHT22;9888;48.606;9.630;2023-05-07T09:46:27;24.20;99.90
19496;DHT22;9888;48.606;9.630;2023-05-07T09:48:57;24.30;99.90
19496;DHT22;9888;48.606;9.630;2023-05-07T09:51:39;24.50;99.90
19496;DHT22;9888;48.606;9.630;2023-05-07T09:54:08;24.50;99.90
19496;DHT22;9888;48.606;9.630;2023-05-07T09:56:36;24.40;99.90
19496;DHT22;9888;48.606;9.630;2023-05-07T09:59:10;24.50;99.90
19496;DHT22;9888;48.606;9.630;2023-05-07T10:01:42;24.80;99.90
19496;DHT22;9888;48.606;9.630;2023-05-07T10:04:13;24.70;99.90
19496;DHT22;9888;48.606;9.630;2023-05-07T10:06:43;24.80;99.90
19496;DHT22;9888;48.606;9.630;2023-05-07T10:09:11;24.90;99.90
19496;DHT22;9888;48.606;9.630;2023-05-07T10:11:40;24.90;99.90
19496;DHT22;9888;48.606;9.630;2023-05-07T10:14:11;25.00;99.90
19496;DHT22;9888;48.606;9.630;2023-05-07T10:16:39;24.90;99.90
19496;DHT22;9888;48.606;9.630;2023-05-07T10:19:11;25.20;99.90
19496;DHT22;9888;48.606;9.630;2023-05-07T10:21:54;24.90;99.90
19496;DHT22;9888;48.606;9.630;2023-05-07T10:24:31;25.20;99.90
19496;DHT22;9888;48.606;9.630;2023-05-07T10:27:10;25.10;99.90
19496;DHT22;9888;48.606;9.630;2023-05-07T10:30:07;25.20;99.90
19496;DHT22;9888;48.606;9.630;2023-05-07T10:32:39;25.50;99.90
19496;DHT22;9888;48.606;9.630;2023-05-07T10:35:10;25.60;99.90
19496;DHT22;9888;48.606;9.630;2023-05-07T10:37:41;25.70;99.90
19496;DHT22;9888;48.606;9.630;2023-05-07T10:40:12;26.00;99.90
19496;DHT22;9888;48.606;9.630;2023-05-07T10:42:56;26.30;99.90
19496;DHT22;9888;48.606;9.630;2023-05-07T10:45:26;26.50;99.90
19496;DHT22;9888;48.606;9.630;2023-05-07T10:48:16;26.80;99.90
19496;DHT22;9888;48.606;9.630;2023-05-07T10:50:46;26.90;99.90
19496;DHT22;9888;48.606;9.630;2023-05-07T10:53:20;26.90;99.90
19496;DHT22;9888;48.606;9.630;2023-05-07T10:55:52;26.90;99.90
19496;DHT22;9888;48.606;9.630;2023-05-07T10:58:39;27.10;99.90
19496;DHT22;9888;48.606;9.630;2023-05-07T11:04:15;27.40;99.90
19496;DHT22;9888;48.606;9.630;2023-05-07T11:09:54;27.90;99.90
19496;DHT22;9888;48.606;9.630;2023-05-07T11:15:11;28.30;99.90
19496;DHT22;9888;48.606;9.630;2023-05-07T11:17:59;27.80;99.90
19496;DHT22;9888;48.606;9.630;2023-05-07T11:26:07;27.30;99.90
19496;DHT22;9888;48.606;9.630;2023-05-07T11:28:40;27.50;99.90
19496;DHT22;9888;48.606;9.630;2023-05-07T11:31:09;28.20;99.90
19496;DHT22;9888;48.606;9.630;2023-05-07T11:33:38;28.10;99.90
19496;DHT22;9888;48.606;9.630;2023-05-07T11:36:12;28.10;99.90
19496;DHT22;9888;48.606;9.630;2023-05-07T11:38:40;28.20;99.90
19496;DHT22;9888;48.606;9.630;2023-05-07T11:41:11;28.10;99.90
19496;DHT22;9888;48.606;9.630;2023-05-07T11:43:55;28.20;99.90
19496;DHT22;9888;48.606;9.630;2023-05-07T11:46:29;28.10;99.90
19496;DHT22;9888;48.606;9.630;2023-05-07T11:49:00;27.90;99.90
19496;DHT22;9888;48.606;9.630;2023-05-07T11:51:28;27.60;99.90
19496;DHT22;9888;48.606;9.630;2023-05-07T11:54:03;27.10;99.90
19496;DHT22;9888;48.606;9.630;2023-05-07T11:56:35;26.70;99.90
19496;DHT22;9888;48.606;9.630;2023-05-07T11:59:04;26.10;99.90
19496;DHT22;9888;48.606;9.630;2023-05-07T12:01:37;25.60;99.90
19496;DHT22;9888;48.606;9.630;2023-05-07T12:04:05;25.00;99.90
19496;DHT22;9888;48.606;9.630;2023-05-07T12:06:36;24.50;99.90
19496;DHT22;9888;48.606;9.630;2023-05-07T12:09:05;24.10;99.90
19496;DHT22;9888;48.606;9.630;2023-05-07T12:12:13;23.70;99.90
19496;DHT22;9888;48.606;9.630;2023-05-07T12:15:15;23.50;99.90
19496;DHT22;9888;48.606;9.630;2023-05-07T12:17:49;23.30;99.90
19496;DHT22;9888;48.606;9.630;2023-05-07T12:20:19;23.00;99.90
19496;DHT22;9888;48.606;9.630;2023-05-07T12:22:48;22.90;99.90
19496;DHT22;9888;48.606;9.630;2023-05-07T12:25:20;22.60;99.90
19496;DHT22;9888;48.606;9.630;2023-05-07T12:27:52;22.40;99.90
19496;DHT22;9888;48.606;9.630;2023-05-07T12:30:20;22.10;99.90
19496;DHT22;9888;48.606;9.630;2023-05-07T12:32:54;22.00;99.90
19496;DHT22;9888;48.606;9.630;2023-05-07T12:35:32;21.80;99.90
19496;DHT22;9888;48.606;9.630;2023-05-07T12:38:03;21.70;99.90
19496;DHT22;9888;48.606;9.630;2023-05-07T12:40:39;21.50;99.90
19496;DHT22;9888;48.606;9.630;2023-05-07T12:43:07;21.50;99.90
19496;DHT22;9888;48.606;9.630;2023-05-07T12:45:41;21.30;99.90
19496;DHT22;9888;48.606;9.630;2023-05-07T12:48:11;21.20;99.90
19496;DHT22;9888;48.606;9.630;2023-05-07T12:50:39;21.00;99.90
19496;DHT22;9888;48.606;9.630;2023-05-07T12:53:07;20.80;99.90
19496;DHT22;9888;48.606;9.630;2023-05-07T12:55:42;20.40;99.90
19496;DHT22;9888;48.606;9.630;2023-05-07T12:58:24;20.10;99.90
19496;DHT22;9888;48.606;9.630;2023-05-07T13:00:53;19.80;99.90
19496;DHT22;9888;48.606;9.630;2023-05-07T13:03:33;19.40;99.90
19496;DHT22;9888;48.606;9.630;2023-05-07T13:06:06;19.20;99.90
19496;DHT22;9888;48.606;9.630;2023-05-07T13:08:39;19.00;99.90
19496;DHT22;9888;48.606;9.630;2023-05-07T13:11:18;18.80;99.90
19496;DHT22;9888;48.606;9.630;2023-05-07T13:13:53;18.80;99.90
19496;DHT22;9888;48.606;9.630;2023-05-07T13:16:29;18.90;99.90
19496;DHT22;9888;48.606;9.630;2023-05-07T13:18:57;18.90;99.90
19496;DHT22;9888;48.606;9.630;2023-05-07T13:21:27;18.90;99.90
19496;DHT22;9888;48.606;9.630;2023-05-07T13:23:54;18.70;99.90
19496;DHT22;9888;48.606;9.630;2023-05-07T13:26:22;18.80;99.90
19496;DHT22;9888;48.606;9.630;2023-05-07T13:28:50;18.60;99.90
19496;DHT22;9888;48.606;9.630;2023-05-07T13:31:18;18.50;99.90
19496;DHT22;9888;48.606;9.630;2023-05-07T13:33:48;18.40;99.90
19496;DHT22;9888;48.606;9.630;2023-05-07T13:36:18;18.30;99.90
19496;DHT22;9888;48.606;9.630;2023-05-07T13:38:49;18.40;99.90
19496;DHT22;9888;48.606;9.630;2023-05-07T13:41:17;18.40;99.90
19496;DHT22;9888;48.606;9.630;2023-05-07T13:43:44;18.40;99.90
19496;DHT22;9888;48.606;9.630;2023-05-07T13:46:13;18.50;99.90
19496;DHT22;9888;48.606;9.630;2023-05-07T13:48:43;18.40;99.90
19496;DHT22;9888;48.606;9.630;2023-05-07T13:51:11;18.40;99.90
19496;DHT22;9888;48.606;9.630;2023-05-07T13:53:39;18.30;99.90
19496;DHT22;9888;48.606;9.630;2023-05-07T13:56:07;18.10;99.90
19496;DHT22;9888;48.606;9.630;2023-05-07T13:58:35;17.90;99.90
19496;DHT22;9888;48.606;9.630;2023-05-07T14:01:03;17.80;99.90
19496;DHT22;9888;48.606;9.630;2023-05-07T14:03:33;17.80;99.90
19496;DHT22;9888;48.606;9.630;2023-05-07T14:06:04;17.70;99.90
19496;DHT22;9888;48.606;9.630;2023-05-07T14:08:36;17.70;99.90
19496;DHT22;9888;48.606;9.630;2023-05-07T14:11:06;17.70;99.90
19496;DHT22;9888;48.606;9.630;2023-05-07T14:13:40;17.60;99.90
19496;DHT22;9888;48.606;9.630;2023-05-07T14:16:08;17.50;99.90
19496;DHT22;9888;48.606;9.630;2023-05-07T14:18:36;17.00;99.90
19496;DHT22;9888;48.606;9.630;2023-05-07T14:21:05;16.50;99.90
19496;DHT22;9888;48.606;9.630;2023-05-07T14:23:40;16.00;99.90
19496;DHT22;9888;48.606;9.630;2023-05-07T14:26:12;15.60;99.90
19496;DHT22;9888;48.606;9.630;2023-05-07T14:28:41;15.30;99.90
19496;DHT22;9888;48.606;9.630;2023-05-07T14:31:15;15.00;99.90
19496;DHT22;9888;48.606;9.630;2023-05-07T14:33:46;14.80;99.90
19496;DHT22;9888;48.606;9.630;2023-05-07T14:36:15;14.70;99.90
19496;DHT22;9888;48.606;9.630;2023-05-07T14:38:44;14.60;99.90
19496;DHT22;9888;48.606;9.630;2023-05-07T14:41:14;14.50;99.90
19496;DHT22;9888;48.606;9.630;2023-05-07T14:43:42;14.40;99.90
19496;DHT22;9888;48.606;9.630;2023-05-07T14:46:20;14.20;99.90
19496;DHT22;9888;48.606;9.630;2023-05-07T14:48:50;14.10;99.90
19496;DHT22;9888;48.606;9.630;2023-05-07T14:51:18;13.90;99.90
19496;DHT22;9888;48.606;9.630;2023-05-07T14:53:46;13.90;99.90
19496;DHT22;9888;48.606;9.630;2023-05-07T14:56:13;13.90;99.90
19496;DHT22;9888;48.606;9.630;2023-05-07T14:58:42;14.00;99.90
19496;DHT22;9888;48.606;9.630;2023-05-07T15:01:10;14.10;99.90
19496;DHT22;9888;48.606;9.630;2023-05-07T15:03:46;14.20;99.90
19496;DHT22;9888;48.606;9.630;2023-05-07T15:06:15;14.30;99.90
19496;DHT22;9888;48.606;9.630;2023-05-07T15:08:42;14.30;99.90
19496;DHT22;9888;48.606;9.630;2023-05-07T15:11:10;14.30;99.90
19496;DHT22;9888;48.606;9.630;2023-05-07T15:13:39;14.30;99.90
19496;DHT22;9888;48.606;9.630;2023-05-07T15:16:06;14.40;99.90
19496;DHT22;9888;48.606;9.630;2023-05-07T15:18:35;14.40;99.90
19496;DHT22;9888;48.606;9.630;2023-05-07T15:21:04;14.40;99.90
19496;DHT22;9888;48.606;9.630;2023-05-07T15:23:32;14.40;99.90
19496;DHT22;9888;48.606;9.630;2023-05-07T15:26:03;14.40;99.90
19496;DHT22;9888;48.606;9.630;2023-05-07T15:28:32;14.40;99.90
19496;DHT22;9888;48.606;9.630;2023-05-07T15:31:01;14.50;99.90
19496;DHT22;9888;48.606;9.630;2023-05-07T15:33:33;14.50;99.90
19496;DHT22;9888;48.606;9.630;2023-05-07T15:36:09;14.40;99.90
19496;DHT22;9888;48.606;9.630;2023-05-07T15:38:41;14.20;99.90
19496;DHT22;9888;48.606;9.630;2023-05-07T15:41:25;14.10;99.90
19496;DHT22;9888;48.606;9.630;2023-05-07T15:43:54;14.00;99.90
19496;DHT22;9888;48.606;9.630;2023-05-07T15:46:25;14.00;99.90
19496;DHT22;9888;48.606;9.630;2023-05-07T15:52:16;14.20;99.90
19496;DHT22;9888;48.606;9.630;2023-05-07T15:54:50;14.20;99.90
19496;DHT22;9888;48.606;9.630;2023-05-07T15:57:23;14.20;99.90
19496;DHT22;9888;48.606;9.630;2023-05-07T15:59:55;14.10;99.90
19496;DHT22;9888;48.606;9.630;2023-05-07T16:02:24;14.00;99.90
19496;DHT22;9888;48.606;9.630;2023-05-07T16:05:00;14.00;99.90
19496;DHT22;9888;48.606;9.630;2023-05-07T16:07:29;14.10;99.90
19496;DHT22;9888;48.606;9.630;2023-05-07T16:10:04;14.10;99.90
19496;DHT22;9888;48.606;9.630;2023-05-07T16:12:34;14.20;99.90
19496;DHT22;9888;48.606;9.630;2023-05-07T16:15:05;14.30;99.90
19496;DHT22;9888;48.606;9.630;2023-05-07T16:17:34;14.40;99.90
19496;DHT22;9888;48.606;9.630;2023-05-07T16:20:02;14.60;99.90
19496;DHT22;9888;48.606;9.630;2023-05-07T16:22:32;14.60;99.90
19496;DHT22;9888;48.606;9.630;2023-05-07T16:25:06;14.70;99.90